sensor_id;sensor_type;location;lat;lon;timestamp;pressure;altitude;pressure_sealevel;temperature;humidity
49216;BME280;45943;53.148;8.204;2024-03-08T00:02:14;102348.13;;;7.06;100.00
49216;BME280;45943;53.148;8.204;2024-03-08T00:04:40;102346.41;;;7.05;100.00
49216;BME280;45943;53.148;8.204;2024-03-08T00:07:06;102348.28;;;7.03;100.00
49216;BME280;45943;53.148;8.204;2024-03-08T00:09:32;102343.94;;;7.00;100.00
49216;BME280;45943;53.148;8.204;2024-03-08T00:11:58;102342.06;;;7.02;100.00
49216;BME280;45943;53.148;8.204;2024-03-08T00:14:24;102345.47;;;7.06;100.00
49216;BME280;45943;53.148;8.204;2024-03-08T00:16:51;102347.34;;;7.04;100.00
49216;BME280;45943;53.148;8.204;2024-03-08T00:19:18;102345.59;;;7.03;100.00
49216;BME280;45943;53.148;8.204;2024-03-08T00:21:44;102346.41;;;7.05;100.00
49216;BME280;45943;53.148;8.204;2024-03-08T00:24:10;102340.06;;;7.07;99.13
49216;BME280;45943;53.148;8.204;2024-03-08T00:26:37;102342.78;;;7.06;99.20
49216;BME280;45943;53.148;8.204;2024-03-08T00:29:03;102332.91;;;7.08;98.52
49216;BME280;45943;53.148;8.204;2024-03-08T00:31:29;102336.59;;;7.05;97.10
49216;BME280;45943;53.148;8.204;2024-03-08T00:33:56;102338.66;;;6.99;97.35
49216;BME280;45943;53.148;8.204;2024-03-08T00:36:22;102334.19;;;6.99;100.00
49216;BME280;45943;53.148;8.204;2024-03-08T00:38:49;102331.41;;;7.02;97.85
49216;BME280;45943;53.148;8.204;2024-03-08T00:41:15;102340.50;;;6.97;96.28
49216;BME280;45943;53.148;8.204;2024-03-08T00:43:41;102333.56;;;6.93;97.36
49216;BME280;45943;53.148;8.204;2024-03-08T00:46:06;102329.34;;;6.87;96.97
49216;BME280;45943;53.148;8.204;2024-03-08T00:48:33;102326.56;;;6.90;97.69
49216;BME280;45943;53.148;8.204;2024-03-08T00:50:59;102325.88;;;6.85;97.30
49216;BME280;45943;53.148;8.204;2024-03-08T00:53:25;102323.41;;;6.80;97.64
49216;BME280;45943;53.148;8.204;2024-03-08T00:55:51;102320.84;;;6.77;97.40
49216;BME280;45943;53.148;8.204;2024-03-08T00:58:17;102321.19;;;6.70;97.85
49216;BME280;45943;53.148;8.204;2024-03-08T01:00:43;102315.38;;;6.60;98.19
49216;BME280;45943;53.148;8.204;2024-03-08T01:03:10;102316.47;;;6.54;99.86
49216;BME280;45943;53.148;8.204;2024-03-08T01:05:36;102313.66;;;6.57;100.00
49216;BME280;45943;53.148;8.204;2024-03-08T01:08:02;102302.19;;;6.55;99.25
49216;BME280;45943;53.148;8.204;2024-03-08T01:10:29;102306.16;;;6.45;100.00
49216;BME280;45943;53.148;8.204;2024-03-08T01:12:54;102306.47;;;6.38;100.00
49216;BME280;45943;53.148;8.204;2024-03-08T01:15:22;102303.88;;;6.36;100.00
49216;BME280;45943;53.148;8.204;2024-03-08T01:17:49;102293.91;;;6.41;100.00
49216;BME280;45943;53.148;8.204;2024-03-08T01:20:15;102297.75;;;6.34;100.00
49216;BME280;45943;53.148;8.204;2024-03-08T01:22:41;102288.50;;;6.43;100.00
49216;BME280;45943;53.148;8.204;2024-03-08T01:25:07;102293.09;;;6.39;100.00
49216;BME280;45943;53.148;8.204;2024-03-08T01:27:34;102286.06;;;6.37;100.00
49216;BME280;45943;53.148;8.204;2024-03-08T01:30:02;102287.28;;;6.29;100.00
49216;BME280;45943;53.148;8.204;2024-03-08T01:32:29;102281.97;;;6.28;100.00
49216;BME280;45943;53.148;8.204;2024-03-08T01:34:55;102284.03;;;6.21;100.00
49216;BME280;45943;53.148;8.204;2024-03-08T01:37:21;102280.19;;;6.28;100.00
49216;BME280;45943;53.148;8.204;2024-03-08T01:39:47;102268.56;;;6.31;100.00
49216;BME280;45943;53.148;8.204;2024-03-08T01:42:13;102272.16;;;6.30;100.00
49216;BME280;45943;53.148;8.204;2024-03-08T01:44:41;102261.38;;;6.33;100.00
49216;BME280;45943;53.148;8.204;2024-03-08T01:47:06;102261.22;;;6.36;100.00
49216;BME280;45943;53.148;8.204;2024-03-08T01:49:33;102260.13;;;6.42;100.00
49216;BME280;45943;53.148;8.204;2024-03-08T01:51:59;102254.97;;;6.37;99.47
49216;BME280;45943;53.148;8.204;2024-03-08T01:54:26;102254.72;;;6.21;98.79
49216;BME280;45943;53.148;8.204;2024-03-08T01:56:52;102254.41;;;6.29;98.95
49216;BME280;45943;53.148;8.204;2024-03-08T01:59:19;102251.88;;;6.26;98.74
49216;BME280;45943;53.148;8.204;2024-03-08T02:01:45;102244.66;;;6.28;99.16
49216;BME280;45943;53.148;8.204;2024-03-08T02:04:11;102234.16;;;6.25;99.54
49216;BME280;45943;53.148;8.204;2024-03-08T02:06:37;102243.88;;;6.26;98.66
49216;BME280;45943;53.148;8.204;2024-03-08T02:09:04;102236.88;;;6.23;98.90
49216;BME280;45943;53.148;8.204;2024-03-08T02:11:35;102230.91;;;6.17;99.59
49216;BME280;45943;53.148;8.204;2024-03-08T02:14:02;102234.56;;;6.14;98.86
49216;BME280;45943;53.148;8.204;2024-03-08T02:16:28;102226.72;;;6.11;99.56
49216;BME280;45943;53.148;8.204;2024-03-08T02:18:54;102235.06;;;6.02;100.00
49216;BME280;45943;53.148;8.204;2024-03-08T02:21:20;102231.41;;;6.04;100.00
49216;BME280;45943;53.148;8.204;2024-03-08T02:23:46;102235.28;;;5.96;100.00
49216;BME280;45943;53.148;8.204;2024-03-08T02:26:12;102228.00;;;6.01;100.00
49216;BME280;45943;53.148;8.204;2024-03-08T02:28:38;102232.34;;;6.03;99.63
49216;BME280;45943;53.148;8.204;2024-03-08T02:31:05;102222.63;;;6.02;100.00
49216;BME280;45943;53.148;8.204;2024-03-08T02:33:33;102232.56;;;5.97;99.94
49216;BME280;45943;53.148;8.204;2024-03-08T02:36:00;102225.34;;;6.01;100.00
49216;BME280;45943;53.148;8.204;2024-03-08T02:38:26;102235.22;;;5.97;100.00
49216;BME280;45943;53.148;8.204;2024-03-08T02:40:52;102220.25;;;5.95;100.00
49216;BME280;45943;53.148;8.204;2024-03-08T02:43:19;102224.50;;;5.99;100.00
49216;BME280;45943;53.148;8.204;2024-03-08T02:45:50;102218.66;;;5.91;100.00
49216;BME280;45943;53.148;8.204;2024-03-08T02:48:18;102213.72;;;5.80;100.00
49216;BME280;45943;53.148;8.204;2024-03-08T02:50:44;102209.28;;;5.79;100.00
49216;BME280;45943;53.148;8.204;2024-03-08T02:53:11;102210.28;;;5.76;100.00
49216;BME280;45943;53.148;8.204;2024-03-08T02:55:41;102203.28;;;5.74;100.00
49216;BME280;45943;53.148;8.204;2024-03-08T02:58:07;102208.03;;;5.66;100.00
49216;BME280;45943;53.148;8.204;2024-03-08T03:00:37;102200.75;;;5.71;100.00
49216;BME280;45943;53.148;8.204;2024-03-08T03:03:07;102193.66;;;5.70;100.00
49216;BME280;45943;53.148;8.204;2024-03-08T03:05:33;102190.97;;;5.71;100.00
49216;BME280;45943;53.148;8.204;2024-03-08T03:07:59;102195.41;;;5.71;100.00
49216;BME280;45943;53.148;8.204;2024-03-08T03:10:25;102190.97;;;5.71;100.00
49216;BME280;45943;53.148;8.204;2024-03-08T03:12:51;102188.81;;;5.81;100.00
49216;BME280;45943;53.148;8.204;2024-03-08T03:15:18;102190.13;;;5.69;100.00
49216;BME280;45943;53.148;8.204;2024-03-08T03:17:47;102186.44;;;5.50;100.00
49216;BME280;45943;53.148;8.204;2024-03-08T03:20:17;102194.03;;;5.61;100.00
49216;BME280;45943;53.148;8.204;2024-03-08T03:22:48;102186.56;;;5.70;100.00
49216;BME280;45943;53.148;8.204;2024-03-08T03:25:21;102187.38;;;5.72;100.00
49216;BME280;45943;53.148;8.204;2024-03-08T03:27:54;102181.34;;;5.67;100.00
49216;BME280;45943;53.148;8.204;2024-03-08T03:30:23;102184.72;;;5.72;100.00
49216;BME280;45943;53.148;8.204;2024-03-08T03:32:52;102189.09;;;5.73;100.00
49216;BME280;45943;53.148;8.204;2024-03-08T03:35:22;102184.13;;;5.64;100.00
49216;BME280;45943;53.148;8.204;2024-03-08T03:37:48;102189.75;;;5.57;100.00
49216;BME280;45943;53.148;8.204;2024-03-08T03:40:28;102189.38;;;5.66;100.00
49216;BME280;45943;53.148;8.204;2024-03-08T03:42:55;102190.13;;;5.69;100.00
49216;BME280;45943;53.148;8.204;2024-03-08T03:45:21;102190.25;;;5.66;100.00
49216;BME280;45943;53.148;8.204;2024-03-08T03:47:48;102180.25;;;5.73;100.00
49216;BME280;45943;53.148;8.204;2024-03-08T03:50:14;102189.91;;;5.75;100.00
49216;BME280;45943;53.148;8.204;2024-03-08T03:52:40;102179.44;;;5.71;100.00
49216;BME280;45943;53.148;8.204;2024-03-08T03:55:07;102181.97;;;5.74;100.00
49216;BME280;45943;53.148;8.204;2024-03-08T03:57:34;102177.22;;;5.82;100.00
49216;BME280;45943;53.148;8.204;2024-03-08T04:00:00;102179.03;;;5.82;100.00
49216;BME280;45943;53.148;8.204;2024-03-08T04:02:28;102177.53;;;5.74;100.00
49216;BME280;45943;53.148;8.204;2024-03-08T04:04:54;102181.63;;;5.60;100.00
49216;BME280;45943;53.148;8.204;2024-03-08T04:07:20;102175.34;;;5.62;100.00
49216;BME280;45943;53.148;8.204;2024-03-08T04:09:46;102175.75;;;5.52;100.00
49216;BME280;45943;53.148;8.204;2024-03-08T04:12:12;102169.59;;;5.50;100.00
49216;BME280;45943;53.148;8.204;2024-03-08T04:14:41;102168.72;;;5.49;100.00
49216;BME280;45943;53.148;8.204;2024-03-08T04:17:08;102169.72;;;5.46;100.00
49216;BME280;45943;53.148;8.204;2024-03-08T04:19:38;102163.59;;;5.44;100.00
49216;BME280;45943;53.148;8.204;2024-03-08T04:22:05;102166.31;;;5.43;100.00
49216;BME280;45943;53.148;8.204;2024-03-08T04:24:33;102169.91;;;5.42;100.00
49216;BME280;45943;53.148;8.204;2024-03-08T04:26:59;102162.69;;;5.45;100.00
49216;BME280;45943;53.148;8.204;2024-03-08T04:29:25;102166.06;;;5.49;100.00
49216;BME280;45943;53.148;8.204;2024-03-08T04:31:52;102167.13;;;5.45;100.00
49216;BME280;45943;53.148;8.204;2024-03-08T04:34:20;102161.09;;;5.40;100.00
49216;BME280;45943;53.148;8.204;2024-03-08T04:36:49;102154.91;;;5.39;100.00
49216;BME280;45943;53.148;8.204;2024-03-08T04:39:15;102163.03;;;5.36;100.00
49216;BME280;45943;53.148;8.204;2024-03-08T04:41:44;102159.91;;;5.25;100.00
49216;BME280;45943;53.148;8.204;2024-03-08T04:44:11;102160.75;;;5.26;100.00
49216;BME280;45943;53.148;8.204;2024-03-08T04:46:38;102158.97;;;5.26;100.00
49216;BME280;45943;53.148;8.204;2024-03-08T04:49:04;102155.38;;;5.27;100.00
49216;BME280;45943;53.148;8.204;2024-03-08T04:51:30;102146.75;;;5.21;100.00
49216;BME280;45943;53.148;8.204;2024-03-08T04:53:56;102154.78;;;5.19;100.00
49216;BME280;45943;53.148;8.204;2024-03-08T04:56:22;102141.22;;;5.27;100.00
49216;BME280;45943;53.148;8.204;2024-03-08T04:58:48;102147.28;;;5.30;100.00
49216;BME280;45943;53.148;8.204;2024-03-08T05:01:15;102143.19;;;5.22;100.00
49216;BME280;45943;53.148;8.204;2024-03-08T05:03:41;102151.00;;;5.26;100.00
49216;BME280;45943;53.148;8.204;2024-03-08T05:06:07;102145.47;;;5.07;100.00
49216;BME280;45943;53.148;8.204;2024-03-08T05:08:33;102136.84;;;5.01;100.00
49216;BME280;45943;53.148;8.204;2024-03-08T05:11:00;102128.72;;;5.05;100.00
49216;BME280;45943;53.148;8.204;2024-03-08T05:13:30;102137.16;;;5.16;100.00
49216;BME280;45943;53.148;8.204;2024-03-08T05:15:56;102136.16;;;5.19;100.00
49216;BME280;45943;53.148;8.204;2024-03-08T05:18:24;102129.59;;;5.29;100.00
49216;BME280;45943;53.148;8.204;2024-03-08T05:20:50;102122.47;;;5.30;100.00
49216;BME280;45943;53.148;8.204;2024-03-08T05:23:17;102120.66;;;5.30;100.00
49216;BME280;45943;53.148;8.204;2024-03-08T05:25:45;102120.66;;;5.30;100.00
49216;BME280;45943;53.148;8.204;2024-03-08T05:28:14;102119.78;;;5.31;100.00
49216;BME280;45943;53.148;8.204;2024-03-08T05:30:40;102114.91;;;5.19;100.00
49216;BME280;45943;53.148;8.204;2024-03-08T05:33:06;102118.66;;;5.13;100.00
49216;BME280;45943;53.148;8.204;2024-03-08T05:35:36;102122.34;;;5.09;100.00
49216;BME280;45943;53.148;8.204;2024-03-08T05:38:02;102109.69;;;5.16;100.00
49216;BME280;45943;53.148;8.204;2024-03-08T05:40:28;102114.97;;;5.17;100.00
49216;BME280;45943;53.148;8.204;2024-03-08T05:42:58;102105.47;;;5.10;100.00
49216;BME280;45943;53.148;8.204;2024-03-08T05:45:25;102105.44;;;5.12;100.00
49216;BME280;45943;53.148;8.204;2024-03-08T05:47:51;102105.03;;;5.23;100.00
49216;BME280;45943;53.148;8.204;2024-03-08T05:50:18;102110.28;;;5.24;100.00
49216;BME280;45943;53.148;8.204;2024-03-08T05:52:45;102107.63;;;5.24;100.00
49216;BME280;45943;53.148;8.204;2024-03-08T05:55:11;102114.69;;;5.25;100.00
49216;BME280;45943;53.148;8.204;2024-03-08T05:57:40;102105.38;;;5.13;100.00
49216;BME280;45943;53.148;8.204;2024-03-08T06:00:08;102102.38;;;5.23;100.00
49216;BME280;45943;53.148;8.204;2024-03-08T06:02:37;102098.72;;;5.25;100.00
49216;BME280;45943;53.148;8.204;2024-03-08T06:05:08;102100.72;;;5.18;100.00
49216;BME280;45943;53.148;8.204;2024-03-08T06:07:35;102098.88;;;5.21;100.00
49216;BME280;45943;53.148;8.204;2024-03-08T06:10:01;102106.75;;;5.24;100.00
49216;BME280;45943;53.148;8.204;2024-03-08T06:12:28;102096.41;;;5.16;100.00
49216;BME280;45943;53.148;8.204;2024-03-08T06:14:58;102094.78;;;5.12;100.00
49216;BME280;45943;53.148;8.204;2024-03-08T06:17:24;102094.88;;;5.09;100.00
49216;BME280;45943;53.148;8.204;2024-03-08T06:19:51;102098.41;;;5.09;100.00
49216;BME280;45943;53.148;8.204;2024-03-08T06:22:18;102098.31;;;5.12;100.00
49216;BME280;45943;53.148;8.204;2024-03-08T06:24:45;102094.59;;;5.16;100.00
49216;BME280;45943;53.148;8.204;2024-03-08T06:27:11;102085.69;;;5.17;100.00
49216;BME280;45943;53.148;8.204;2024-03-08T06:29:37;102093.53;;;5.22;100.00
49216;BME280;45943;53.148;8.204;2024-03-08T06:32:03;102085.47;;;5.24;100.00
49216;BME280;45943;53.148;8.204;2024-03-08T06:34:29;102085.47;;;5.24;100.00
49216;BME280;45943;53.148;8.204;2024-03-08T06:36:58;102086.34;;;5.24;100.00
49216;BME280;45943;53.148;8.204;2024-03-08T06:39:26;102080.22;;;5.22;100.00
49216;BME280;45943;53.148;8.204;2024-03-08T06:41:52;102080.03;;;5.27;100.00
49216;BME280;45943;53.148;8.204;2024-03-08T06:44:18;102077.25;;;5.30;100.00
49216;BME280;45943;53.148;8.204;2024-03-08T06:46:47;102079.88;;;5.31;100.00
49216;BME280;45943;53.148;8.204;2024-03-08T06:49:14;102077.44;;;5.25;100.00
49216;BME280;45943;53.148;8.204;2024-03-08T06:51:41;102073.25;;;5.18;100.00
49216;BME280;45943;53.148;8.204;2024-03-08T06:54:07;102070.66;;;5.16;100.00
49216;BME280;45943;53.148;8.204;2024-03-08T06:56:34;102080.38;;;5.17;100.00
49216;BME280;45943;53.148;8.204;2024-03-08T06:59:00;102083.28;;;5.11;100.00
49216;BME280;45943;53.148;8.204;2024-03-08T07:01:29;102085.03;;;5.12;100.00
49216;BME280;45943;53.148;8.204;2024-03-08T07:03:59;102079.28;;;5.23;100.00
49216;BME280;45943;53.148;8.204;2024-03-08T07:06:27;102077.72;;;5.17;100.00
49216;BME280;45943;53.148;8.204;2024-03-08T07:08:54;102086.38;;;4.99;100.00
49216;BME280;45943;53.148;8.204;2024-03-08T07:11:20;102089.47;;;5.12;100.00
49216;BME280;45943;53.148;8.204;2024-03-08T07:13:46;102096.22;;;5.21;100.00
49216;BME280;45943;53.148;8.204;2024-03-08T07:16:12;102082.88;;;5.22;100.00
49216;BME280;45943;53.148;8.204;2024-03-08T07:18:38;102079.50;;;5.17;100.00
49216;BME280;45943;53.148;8.204;2024-03-08T07:21:11;102087.94;;;5.28;100.00
49216;BME280;45943;53.148;8.204;2024-03-08T07:23:37;102082.91;;;5.44;100.00
49216;BME280;45943;53.148;8.204;2024-03-08T07:26:19;102079.31;;;5.67;100.00
49216;BME280;45943;53.148;8.204;2024-03-08T07:28:46;102090.72;;;5.70;100.00
49216;BME280;45943;53.148;8.204;2024-03-08T07:31:12;102075.88;;;5.65;100.00
49216;BME280;45943;53.148;8.204;2024-03-08T07:33:38;102078.47;;;5.66;100.00
49216;BME280;45943;53.148;8.204;2024-03-08T07:36:04;102088.31;;;5.64;100.00
49216;BME280;45943;53.148;8.204;2024-03-08T07:38:30;102075.88;;;5.65;100.00
49216;BME280;45943;53.148;8.204;2024-03-08T07:40:56;102067.66;;;5.69;100.00
49216;BME280;45943;53.148;8.204;2024-03-08T07:43:22;102071.25;;;5.92;100.00
49216;BME280;45943;53.148;8.204;2024-03-08T07:45:48;102068.22;;;6.01;100.00
49216;BME280;45943;53.148;8.204;2024-03-08T07:48:14;102065.78;;;5.95;100.00
49216;BME280;45943;53.148;8.204;2024-03-08T07:50:42;102069.41;;;6.14;100.00
49216;BME280;45943;53.148;8.204;2024-03-08T07:53:08;102063.16;;;6.15;100.00
49216;BME280;45943;53.148;8.204;2024-03-08T07:55:34;102071.63;;;6.25;100.00
49216;BME280;45943;53.148;8.204;2024-03-08T07:58:01;102064.88;;;6.37;99.89
49216;BME280;45943;53.148;8.204;2024-03-08T08:00:28;102069.56;;;6.31;99.39
49216;BME280;45943;53.148;8.204;2024-03-08T08:02:57;102078.22;;;6.37;99.93
49216;BME280;45943;53.148;8.204;2024-03-08T08:05:23;102070.13;;;6.38;98.61
49216;BME280;45943;53.148;8.204;2024-03-08T08:07:49;102073.03;;;6.33;100.00
49216;BME280;45943;53.148;8.204;2024-03-08T08:10:15;102077.47;;;6.33;99.33
49216;BME280;45943;53.148;8.204;2024-03-08T08:12:48;102066.97;;;6.30;99.44
49216;BME280;45943;53.148;8.204;2024-03-08T08:15:14;102065.63;;;6.60;98.72
49216;BME280;45943;53.148;8.204;2024-03-08T08:17:44;102057.47;;;6.64;95.69
49216;BME280;45943;53.148;8.204;2024-03-08T08:20:10;102053.13;;;6.81;96.19
49216;BME280;45943;53.148;8.204;2024-03-08T08:22:39;102057.34;;;6.67;91.31
49216;BME280;45943;53.148;8.204;2024-03-08T08:25:06;102054.13;;;6.58;92.10
49216;BME280;45943;53.148;8.204;2024-03-08T08:27:32;102057.34;;;6.67;92.85
49216;BME280;45943;53.148;8.204;2024-03-08T08:29:58;102052.03;;;6.85;91.02
49216;BME280;45943;53.148;8.204;2024-03-08T08:32:25;102050.00;;;6.72;88.38
49216;BME280;45943;53.148;8.204;2024-03-08T08:34:51;102048.25;;;6.91;88.83
49216;BME280;45943;53.148;8.204;2024-03-08T08:37:17;102044.06;;;7.04;89.19
49216;BME280;45943;53.148;8.204;2024-03-08T08:39:43;102043.47;;;7.16;85.76
49216;BME280;45943;53.148;8.204;2024-03-08T08:42:09;102035.34;;;7.38;83.31
49216;BME280;45943;53.148;8.204;2024-03-08T08:44:36;102039.22;;;7.50;81.76
49216;BME280;45943;53.148;8.204;2024-03-08T08:47:02;102033.66;;;7.36;80.04
49216;BME280;45943;53.148;8.204;2024-03-08T08:49:31;102038.63;;;7.43;79.59
49216;BME280;45943;53.148;8.204;2024-03-08T08:51:57;102028.56;;;7.67;78.39
49216;BME280;45943;53.148;8.204;2024-03-08T08:54:24;102028.94;;;7.60;75.76
49216;BME280;45943;53.148;8.204;2024-03-08T08:56:50;102029.69;;;7.26;75.41
49216;BME280;45943;53.148;8.204;2024-03-08T08:59:17;102026.81;;;7.30;75.69
49216;BME280;45943;53.148;8.204;2024-03-08T09:01:45;102025.56;;;7.37;74.81
49216;BME280;45943;53.148;8.204;2024-03-08T09:04:15;102018.81;;;7.49;74.81
49216;BME280;45943;53.148;8.204;2024-03-08T09:06:42;102019.06;;;7.62;74.12
49216;BME280;45943;53.148;8.204;2024-03-08T09:09:08;102007.75;;;7.74;72.92
49216;BME280;45943;53.148;8.204;2024-03-08T09:11:34;102009.88;;;7.85;72.64
49216;BME280;45943;53.148;8.204;2024-03-08T09:14:01;102010.19;;;7.96;71.72
49216;BME280;45943;53.148;8.204;2024-03-08T09:16:27;102003.75;;;7.83;71.05
49216;BME280;45943;53.148;8.204;2024-03-08T09:18:53;102007.78;;;7.91;70.39
49216;BME280;45943;53.148;8.204;2024-03-08T09:21:19;101991.59;;;8.12;69.31
49216;BME280;45943;53.148;8.204;2024-03-08T09:23:45;101995.75;;;8.17;69.11
49216;BME280;45943;53.148;8.204;2024-03-08T09:26:11;101989.47;;;8.01;68.56
49216;BME280;45943;53.148;8.204;2024-03-08T09:28:38;101986.88;;;8.17;69.16
49216;BME280;45943;53.148;8.204;2024-03-08T09:31:04;101986.44;;;8.24;67.33
49216;BME280;45943;53.148;8.204;2024-03-08T09:33:31;101982.75;;;8.44;67.27
49216;BME280;45943;53.148;8.204;2024-03-08T09:35:57;101970.22;;;8.62;66.83
49216;BME280;45943;53.148;8.204;2024-03-08T09:38:25;101967.94;;;8.87;66.72
49216;BME280;45943;53.148;8.204;2024-03-08T09:40:51;101967.44;;;8.63;65.62
49216;BME280;45943;53.148;8.204;2024-03-08T09:43:18;101971.34;;;8.74;65.75
49216;BME280;45943;53.148;8.204;2024-03-08T09:45:45;101952.41;;;9.10;65.58
49216;BME280;45943;53.148;8.204;2024-03-08T09:48:15;101956.81;;;8.95;63.80
49216;BME280;45943;53.148;8.204;2024-03-08T09:50:44;101950.84;;;9.06;63.89
49216;BME280;45943;53.148;8.204;2024-03-08T09:53:11;101940.81;;;9.25;63.62
49216;BME280;45943;53.148;8.204;2024-03-08T09:55:38;101939.88;;;9.26;62.54
49216;BME280;45943;53.148;8.204;2024-03-08T09:58:08;101937.91;;;9.60;62.97
49216;BME280;45943;53.148;8.204;2024-03-08T10:01:02;101935.50;;;9.55;61.34
49216;BME280;45943;53.148;8.204;2024-03-08T10:03:30;101930.72;;;9.60;61.37
49216;BME280;45943;53.148;8.204;2024-03-08T10:05:58;101924.91;;;9.68;61.24
49216;BME280;45943;53.148;8.204;2024-03-08T10:08:27;101933.16;;;9.49;60.22
49216;BME280;45943;53.148;8.204;2024-03-08T10:10:56;101916.78;;;9.39;60.59
49216;BME280;45943;53.148;8.204;2024-03-08T10:13:24;101923.84;;;9.56;60.80
49216;BME280;45943;53.148;8.204;2024-03-08T10:15:53;101915.94;;;9.83;60.52
49216;BME280;45943;53.148;8.204;2024-03-08T10:18:20;101922.75;;;9.89;59.36
49216;BME280;45943;53.148;8.204;2024-03-08T10:21:01;101908.09;;;10.24;59.28
49216;BME280;45943;53.148;8.204;2024-03-08T10:23:31;101906.88;;;10.00;58.85
49216;BME280;45943;53.148;8.204;2024-03-08T10:25:57;101898.34;;;10.23;59.37
49216;BME280;45943;53.148;8.204;2024-03-08T10:28:24;101898.31;;;10.52;58.94
49216;BME280;45943;53.148;8.204;2024-03-08T10:30:55;101888.06;;;11.00;58.79
49216;BME280;45943;53.148;8.204;2024-03-08T10:33:21;101885.09;;;10.49;56.80
49216;BME280;45943;53.148;8.204;2024-03-08T10:35:47;101880.97;;;10.72;57.21
49216;BME280;45943;53.148;8.204;2024-03-08T10:38:13;101883.34;;;10.76;56.52
49216;BME280;45943;53.148;8.204;2024-03-08T10:40:45;101892.00;;;10.53;56.60
49216;BME280;45943;53.148;8.204;2024-03-08T10:43:19;101871.97;;;10.58;55.87
49216;BME280;45943;53.148;8.204;2024-03-08T10:45:59;101877.59;;;10.82;56.34
49216;BME280;45943;53.148;8.204;2024-03-08T10:48:53;101873.66;;;11.01;56.28
49216;BME280;45943;53.148;8.204;2024-03-08T10:51:24;101874.03;;;11.09;55.49
49216;BME280;45943;53.148;8.204;2024-03-08T10:53:51;101871.84;;;11.28;55.42
49216;BME280;45943;53.148;8.204;2024-03-08T10:56:19;101864.03;;;11.38;54.43
49216;BME280;45943;53.148;8.204;2024-03-08T10:58:45;101865.69;;;11.53;54.75
49216;BME280;45943;53.148;8.204;2024-03-08T11:01:13;101854.38;;;11.48;54.21
49216;BME280;45943;53.148;8.204;2024-03-08T11:06:29;101851.13;;;11.83;53.61
49216;BME280;45943;53.148;8.204;2024-03-08T11:08:57;101844.47;;;11.36;53.49
49216;BME280;45943;53.148;8.204;2024-03-08T11:11:25;101859.25;;;11.16;53.57
49216;BME280;45943;53.148;8.204;2024-03-08T11:13:53;101840.19;;;11.06;54.39
49216;BME280;45943;53.148;8.204;2024-03-08T11:18:57;101830.81;;;11.91;53.64
49216;BME280;45943;53.148;8.204;2024-03-08T11:21:30;101821.97;;;12.02;52.61
49216;BME280;45943;53.148;8.204;2024-03-08T11:24:09;101825.72;;;12.12;52.38
49216;BME280;45943;53.148;8.204;2024-03-08T11:26:39;101809.13;;;12.18;51.42
49216;BME280;45943;53.148;8.204;2024-03-08T11:32:04;101807.25;;;11.95;51.84
49216;BME280;45943;53.148;8.204;2024-03-08T11:34:37;101799.84;;;12.35;51.97
49216;BME280;45943;53.148;8.204;2024-03-08T11:37:05;101795.88;;;12.28;50.60
49216;BME280;45943;53.148;8.204;2024-03-08T11:39:39;101794.66;;;12.45;50.72
49216;BME280;45943;53.148;8.204;2024-03-08T11:42:05;101799.31;;;12.67;50.78
49216;BME280;45943;53.148;8.204;2024-03-08T11:44:32;101791.94;;;12.81;49.68
49216;BME280;45943;53.148;8.204;2024-03-08T11:46:58;101789.44;;;12.30;49.47
49216;BME280;45943;53.148;8.204;2024-03-08T11:49:24;101777.91;;;12.41;50.67
49216;BME280;45943;53.148;8.204;2024-03-08T11:51:51;101785.44;;;12.36;50.29
49216;BME280;45943;53.148;8.204;2024-03-08T11:54:19;101779.16;;;12.48;50.52
49216;BME280;45943;53.148;8.204;2024-03-08T11:56:45;101773.75;;;12.61;50.49
49216;BME280;45943;53.148;8.204;2024-03-08T11:59:13;101776.81;;;12.68;50.35
49216;BME280;45943;53.148;8.204;2024-03-08T12:01:40;101770.00;;;12.14;49.95
49216;BME280;45943;53.148;8.204;2024-03-08T12:04:06;101762.59;;;12.66;48.80
49216;BME280;45943;53.148;8.204;2024-03-08T12:06:38;101765.25;;;12.54;49.44
49216;BME280;45943;53.148;8.204;2024-03-08T12:09:08;101763.63;;;12.76;49.64
49216;BME280;45943;53.148;8.204;2024-03-08T12:11:36;101763.34;;;12.44;49.60
49216;BME280;45943;53.148;8.204;2024-03-08T12:14:03;101751.00;;;12.65;49.53
49216;BME280;45943;53.148;8.204;2024-03-08T12:16:29;101759.91;;;12.66;49.54
49216;BME280;45943;53.148;8.204;2024-03-08T12:18:56;101744.59;;;12.79;48.78
49216;BME280;45943;53.148;8.204;2024-03-08T12:21:25;101741.16;;;13.12;48.63
49216;BME280;45943;53.148;8.204;2024-03-08T12:24:02;101730.69;;;13.31;48.65
49216;BME280;45943;53.148;8.204;2024-03-08T12:26:30;101734.84;;;12.89;47.89
49216;BME280;45943;53.148;8.204;2024-03-08T12:31:54;101719.59;;;13.69;46.96
49216;BME280;45943;53.148;8.204;2024-03-08T12:34:21;101712.31;;;13.36;46.95
49216;BME280;45943;53.148;8.204;2024-03-08T12:36:47;101711.63;;;13.10;46.99
49216;BME280;45943;53.148;8.204;2024-03-08T12:39:16;101702.63;;;13.23;47.23
49216;BME280;45943;53.148;8.204;2024-03-08T12:41:43;101699.97;;;13.45;46.92
49216;BME280;45943;53.148;8.204;2024-03-08T12:44:09;101693.69;;;13.33;47.06
49216;BME280;45943;53.148;8.204;2024-03-08T12:46:37;101699.13;;;13.78;46.50
49216;BME280;45943;53.148;8.204;2024-03-08T12:49:07;101695.19;;;13.37;46.34
49216;BME280;45943;53.148;8.204;2024-03-08T12:51:33;101683.19;;;13.41;46.87
49216;BME280;45943;53.148;8.204;2024-03-08T12:53:59;101683.91;;;13.66;46.06
49216;BME280;45943;53.148;8.204;2024-03-08T12:56:30;101671.53;;;13.30;46.72
49216;BME280;45943;53.148;8.204;2024-03-08T12:59:00;101664.69;;;13.59;46.64
49216;BME280;45943;53.148;8.204;2024-03-08T13:01:27;101658.19;;;13.51;46.68
49216;BME280;45943;53.148;8.204;2024-03-08T13:03:53;101657.06;;;13.64;46.22
49216;BME280;45943;53.148;8.204;2024-03-08T13:06:21;101657.59;;;13.69;45.62